Time;durP1;ratioP1;P1;durP2;ratioP2;P2;SDS_P1;SDS_P2;PMS_P1;PMS_P2;Temp;Humidity;BMP_temperature;BMP_pressure;BME280_temperature;BME280_humidity;BME280_pressure;Samples;Min_cycle;Max_cycle;Signal;HPM_P1;HPM_P2
2020/12/02 00:00:38;;;;;;;26.27;15.00;;;4.10;65.10;;;;;;5028920;28;20022;-82
2020/12/02 00:03:32;;;;;;;27.83;14.07;;;4.00;65.10;;;;;;5032384;28;20104;-83
2020/12/02 00:05:58;;;;;;;25.30;14.03;;;4.00;65.40;;;;;;5026972;28;20041;-83
2020/12/02 00:08:30;;;;;;;25.50;15.30;;;4.00;65.20;;;;;;5027113;28;20029;-82
2020/12/02 00:10:58;;;;;;;24.23;13.27;;;4.00;65.20;;;;;;5020331;28;20018;-83
2020/12/02 00:13:29;;;;;;;22.50;13.17;;;4.00;65.20;;;;;;5022960;28;20029;-83
2020/12/02 00:26:42;;;;;;;21.33;13.07;;;4.00;65.30;;;;;;5032894;28;20462;-82
2020/12/02 00:29:07;;;;;;;23.43;12.87;;;3.90;65.50;;;;;;5021167;28;20026;-83
2020/12/02 00:31:33;;;;;;;22.93;13.10;;;3.90;65.50;;;;;;5026556;28;20040;-83
2020/12/02 00:33:59;;;;;;;25.27;13.20;;;3.80;65.60;;;;;;5033389;28;20029;-83
2020/12/02 00:36:24;;;;;;;22.17;13.17;;;3.90;65.90;;;;;;5033904;28;20034;-82
2020/12/02 00:38:50;;;;;;;22.37;13.17;;;3.90;65.90;;;;;;5032887;28;20112;-83
2020/12/02 00:41:16;;;;;;;20.73;13.03;;;3.90;65.90;;;;;;5026890;28;20504;-84
2020/12/02 00:43:41;;;;;;;21.07;12.30;;;3.90;65.70;;;;;;5032909;28;20033;-83
2020/12/02 00:46:12;;;;;;;21.10;11.60;;;3.90;65.70;;;;;;5029828;28;20028;-83
2020/12/02 00:48:38;;;;;;;23.17;11.30;;;3.80;65.70;;;;;;5020598;28;20025;-83
2020/12/02 00:51:04;;;;;;;22.43;11.70;;;3.80;65.70;;;;;;5030462;28;20033;-83
2020/12/02 00:53:33;;;;;;;20.07;11.20;;;3.80;65.70;;;;;;5013976;28;20133;-83
2020/12/02 00:55:59;;;;;;;19.87;11.37;;;3.80;65.90;;;;;;5028044;28;20029;-83
2020/12/02 00:58:35;;;;;;;20.43;11.77;;;3.70;65.90;;;;;;5025885;28;20507;-84
2020/12/02 01:01:06;;;;;;;17.10;10.97;;;3.80;66.40;;;;;;5031729;28;20072;-83
2020/12/02 01:03:32;;;;;;;17.57;11.43;;;3.90;66.50;;;;;;5029885;28;20468;-83
2020/12/02 01:06:00;;;;;;;21.27;10.97;;;4.00;66.20;;;;;;5032055;28;20022;-83
2020/12/02 01:08:37;;;;;;;15.73;10.87;;;4.00;65.90;;;;;;5023508;28;20043;-83
2020/12/02 01:11:12;;;;;;;18.43;11.87;;;3.90;65.90;;;;;;5031401;28;20026;-83
2020/12/02 01:13:39;;;;;;;18.30;10.80;;;3.80;65.80;;;;;;5023116;28;20033;-83
2020/12/02 01:16:11;;;;;;;14.07;10.00;;;3.70;66.10;;;;;;5028702;28;20041;-83
2020/12/02 01:18:37;;;;;;;14.52;9.38;;;3.70;66.20;;;;;;5016507;28;20033;-83
2020/12/02 01:21:16;;;;;;;19.50;11.37;;;3.70;66.20;;;;;;5030780;28;20087;-83
2020/12/02 01:23:50;;;;;;;17.20;10.53;;;3.70;66.50;;;;;;5016314;28;20380;-83
2020/12/02 01:26:18;;;;;;;16.20;10.47;;;3.70;66.50;;;;;;5023961;28;20021;-83
2020/12/02 01:28:46;;;;;;;14.47;9.53;;;3.70;66.40;;;;;;5019871;28;20022;-83
2020/12/02 01:31:12;;;;;;;14.53;9.93;;;3.70;66.30;;;;;;5020244;28;20028;-83
2020/12/02 01:33:38;;;;;;;17.60;10.30;;;3.70;66.30;;;;;;5026417;28;20025;-83
2020/12/02 01:36:04;;;;;;;17.23;11.30;;;3.70;66.40;;;;;;5030526;28;20026;-83
2020/12/02 01:38:38;;;;;;;19.77;12.30;;;3.70;66.60;;;;;;5024692;28;20056;-83
2020/12/02 01:41:04;;;;;;;20.77;11.47;;;3.70;66.60;;;;;;5023754;28;20030;-83
2020/12/02 01:43:29;;;;;;;17.73;11.60;;;3.70;66.60;;;;;;5031198;28;20365;-83
2020/12/02 01:46:15;;;;;;;14.40;10.10;;;3.80;66.60;;;;;;5023763;28;20017;-83
2020/12/02 01:48:53;;;;;;;17.47;10.87;;;3.80;66.60;;;;;;5024535;28;20021;-84
2020/12/02 01:51:28;;;;;;;20.93;11.43;;;3.80;66.50;;;;;;5032257;28;20053;-83
2020/12/02 01:54:10;;;;;;;21.70;11.87;;;3.80;66.50;;;;;;5025867;28;20116;-83
2020/12/02 01:57:01;;;;;;;21.30;12.25;;;3.80;66.60;;;;;;5027483;28;20467;-83
2020/12/02 01:59:57;;;;;;;17.60;11.60;;;3.80;66.80;;;;;;5018134;28;20042;-83
2020/12/02 02:03:14;;;;;;;21.23;12.23;;;3.70;66.60;;;;;;5031819;28;20025;-83
2020/12/02 02:05:52;;;;;;;18.27;12.50;;;3.70;66.80;;;;;;5026091;28;20038;-83
2020/12/02 02:08:21;;;;;;;20.97;13.10;;;3.70;66.80;;;;;;5019905;28;20101;-83
2020/12/02 02:10:51;;;;;;;15.40;10.87;;;3.70;66.80;;;;;;5023920;28;20026;-83
2020/12/02 02:13:35;;;;;;;16.43;12.00;;;3.70;66.80;;;;;;5025447;28;20575;-83
2020/12/02 02:16:18;;;;;;;17.30;11.37;;;3.70;67.00;;;;;;5027106;28;20052;-83
2020/12/02 02:18:45;;;;;;;18.93;11.70;;;3.80;67.00;;;;;;5021122;28;20049;-83
2020/12/02 02:21:28;;;;;;;18.73;10.97;;;3.70;66.80;;;;;;5021832;28;20091;-83
2020/12/02 02:23:54;;;;;;;17.07;11.20;;;3.70;67.10;;;;;;5028315;28;20480;-83
2020/12/02 02:26:42;;;;;;;19.80;12.67;;;3.70;67.00;;;;;;5019762;28;20033;-83
2020/12/02 02:29:29;;;;;;;21.73;12.17;;;3.70;67.00;;;;;;5012599;28;20097;-83
2020/12/02 02:32:01;;;;;;;22.33;13.13;;;3.70;66.90;;;;;;5029371;28;20025;-83
2020/12/02 02:34:32;;;;;;;19.42;12.52;;;3.70;67.60;;;;;;5025100;28;20030;-83
2020/12/02 02:37:01;;;;;;;22.73;12.47;;;3.60;67.00;;;;;;5031924;28;20030;-83
2020/12/02 02:39:27;;;;;;;19.80;11.80;;;3.60;67.10;;;;;;5029506;28;20033;-83
2020/12/02 02:41:58;;;;;;;21.90;12.60;;;3.60;67.20;;;;;;5032278;28;20500;-83
2020/12/02 02:44:23;;;;;;;22.00;12.93;;;3.60;67.50;;;;;;5027991;28;20033;-83
2020/12/02 02:46:49;;;;;;;23.10;13.10;;;3.60;67.40;;;;;;5030625;28;20025;-83
2020/12/02 02:49:15;;;;;;;19.23;13.37;;;3.60;67.50;;;;;;5030214;28;20396;-83
2020/12/02 02:51:41;;;;;;;27.47;12.47;;;3.60;67.50;;;;;;5016114;28;20129;-83
2020/12/02 02:54:08;;;;;;;21.50;13.23;;;3.60;67.50;;;;;;5018254;28;20113;-83
2020/12/02 02:56:33;;;;;;;24.13;14.17;;;3.60;67.60;;;;;;5016258;28;20114;-83
2020/12/02 02:58:59;;;;;;;17.80;11.60;;;3.60;67.60;;;;;;5025462;28;20425;-83
2020/12/02 03:01:25;;;;;;;19.93;11.43;;;3.60;67.50;;;;;;5025662;28;20032;-83
2020/12/02 03:03:51;;;;;;;18.03;12.87;;;3.70;67.40;;;;;;5028766;28;20033;-83
2020/12/02 03:06:17;;;;;;;22.87;12.00;;;3.70;67.40;;;;;;5032905;28;20028;-83
2020/12/02 03:08:42;;;;;;;15.53;10.67;;;3.60;67.30;;;;;;5033190;28;20476;-82
2020/12/02 03:11:13;;;;;;;24.30;13.60;;;3.60;67.90;;;;;;5024265;28;20589;-83
2020/12/02 03:13:49;;;;;;;23.17;13.67;;;3.70;67.50;;;;;;5026786;28;20033;-83
2020/12/02 03:16:35;;;;;;;20.87;11.60;;;3.70;67.50;;;;;;5022382;28;20468;-82
2020/12/02 03:19:14;;;;;;;18.73;11.90;;;3.60;67.50;;;;;;5021510;28;20047;-83
2020/12/02 03:21:40;;;;;;;21.33;11.93;;;3.60;67.60;;;;;;5048219;28;20392;-83
2020/12/02 03:24:09;;;;;;;17.87;11.53;;;3.60;67.50;;;;;;5024627;28;20442;-83
2020/12/02 03:26:35;;;;;;;21.23;12.83;;;3.60;67.50;;;;;;5033424;28;20105;-82
2020/12/02 03:29:01;;;;;;;21.20;12.63;;;3.60;67.60;;;;;;5020070;28;20034;-83
2020/12/02 03:31:27;;;;;;;20.00;12.60;;;3.60;67.50;;;;;;5024466;28;20036;-83
2020/12/02 03:33:53;;;;;;;17.47;11.10;;;3.60;67.60;;;;;;5026565;28;20021;-83
2020/12/02 03:36:20;;;;;;;18.07;12.43;;;3.50;67.90;;;;;;5034343;28;20049;-83
2020/12/02 03:38:47;;;;;;;19.00;11.80;;;3.50;67.90;;;;;;5030060;28;20263;-82
2020/12/02 03:41:13;;;;;;;18.83;10.93;;;3.60;68.00;;;;;;5033080;28;20029;-83
2020/12/02 03:43:39;;;;;;;20.10;11.10;;;3.60;67.90;;;;;;5027580;28;20061;-83
2020/12/02 03:46:05;;;;;;;18.90;11.50;;;3.60;67.90;;;;;;5015385;28;20476;-83
2020/12/02 03:48:31;;;;;;;20.17;12.17;;;3.60;67.90;;;;;;5015383;28;20026;-83
2020/12/02 03:50:57;;;;;;;25.63;12.90;;;3.60;67.80;;;;;;5017084;28;20037;-83
2020/12/02 03:53:23;;;;;;;21.30;13.10;;;3.70;67.80;;;;;;5014915;28;20100;-83
2020/12/02 03:55:49;;;;;;;23.17;13.50;;;3.60;67.80;;;;;;5023551;28;20037;-83
2020/12/02 03:58:15;;;;;;;24.63;13.43;;;3.60;67.70;;;;;;5014534;28;20501;-82
2020/12/02 04:00:41;;;;;;;21.30;12.57;;;3.60;67.90;;;;;;5027511;28;20116;-83
2020/12/02 04:03:07;;;;;;;29.47;14.10;;;3.60;67.70;;;;;;5033080;28;20406;-83
2020/12/02 04:05:33;;;;;;;22.90;13.60;;;3.70;67.70;;;;;;5027923;28;20022;-83
2020/12/02 04:07:59;;;;;;;24.97;13.73;;;3.70;67.50;;;;;;5021385;28;20101;-82
2020/12/02 04:10:25;;;;;;;24.43;13.07;;;3.80;67.50;;;;;;5032062;28;20117;-83
2020/12/02 04:12:51;;;;;;;26.23;13.17;;;3.80;67.40;;;;;;5032941;28;20030;-83
2020/12/02 04:15:19;;;;;;;20.87;12.13;;;3.80;67.40;;;;;;5027279;28;20091;-83
2020/12/02 04:17:45;;;;;;;19.60;11.93;;;3.80;67.50;;;;;;5029844;28;20452;-82
2020/12/02 04:20:11;;;;;;;22.07;12.67;;;3.80;67.30;;;;;;5031341;28;20117;-82
2020/12/02 04:22:39;;;;;;;18.93;11.97;;;3.80;67.50;;;;;;5031088;28;20105;-83
2020/12/02 04:25:05;;;;;;;22.27;12.13;;;3.80;67.40;;;;;;5033150;28;20022;-83
2020/12/02 04:27:31;;;;;;;20.57;13.10;;;3.80;67.30;;;;;;5029240;28;20030;-83
2020/12/02 04:29:56;;;;;;;22.63;13.97;;;3.80;67.30;;;;;;5032269;28;20563;-83
2020/12/02 04:32:22;;;;;;;26.33;13.83;;;3.80;67.50;;;;;;5032616;28;20022;-83
2020/12/02 04:34:48;;;;;;;26.70;15.43;;;3.70;67.70;;;;;;5014802;28;20072;-83
2020/12/02 04:37:13;;;;;;;27.90;14.97;;;3.80;67.80;;;;;;5033087;28;20025;-83
2020/12/02 04:39:40;;;;;;;23.57;14.10;;;3.80;67.60;;;;;;5016205;28;20030;-83
2020/12/02 04:42:08;;;;;;;23.53;14.33;;;3.70;67.70;;;;;;5019844;28;20049;-83
2020/12/02 04:44:34;;;;;;;22.70;13.50;;;3.80;67.70;;;;;;5021221;28;20075;-83
2020/12/02 04:47:00;;;;;;;19.83;13.73;;;3.80;67.80;;;;;;5019743;28;20099;-83
2020/12/02 04:49:33;;;;;;;21.70;13.17;;;3.80;67.80;;;;;;5030705;28;20025;-83
2020/12/02 04:52:12;;;;;;;17.77;12.55;;;3.70;67.80;;;;;;5031437;28;20029;-83
2020/12/02 04:54:39;;;;;;;18.00;12.67;;;3.80;67.90;;;;;;5019325;28;20037;-83
2020/12/02 04:57:04;;;;;;;19.83;12.37;;;3.80;67.80;;;;;;5029231;28;20168;-84
2020/12/02 04:59:42;;;;;;;27.13;13.10;;;3.80;67.80;;;;;;5026415;28;20458;-83
2020/12/02 05:02:30;;;;;;;25.40;13.87;;;3.80;67.80;;;;;;5028772;28;20396;-83
2020/12/02 05:04:57;;;;;;;29.33;13.77;;;3.80;67.70;;;;;;5031783;28;20033;-83
2020/12/02 05:07:29;;;;;;;22.73;13.03;;;3.80;67.70;;;;;;5029348;28;20056;-83
2020/12/02 05:09:59;;;;;;;28.60;14.47;;;3.80;67.60;;;;;;5031091;28;20021;-83
2020/12/02 05:12:38;;;;;;;21.07;12.57;;;3.80;67.70;;;;;;5022416;28;20124;-83
2020/12/02 05:15:29;;;;;;;25.40;12.10;;;3.80;67.80;;;;;;5032182;28;20041;-83
2020/12/02 05:18:10;;;;;;;24.67;12.47;;;3.80;68.00;;;;;;5030687;28;20038;-83
2020/12/02 05:20:35;;;;;;;22.30;12.20;;;3.80;67.70;;;;;;5028386;28;20041;-83
2020/12/02 05:23:27;;;;;;;20.07;11.63;;;3.70;67.60;;;;;;5026386;28;20037;-83
2020/12/02 05:25:53;;;;;;;24.40;12.63;;;3.80;67.60;;;;;;5032351;28;20040;-83
2020/12/02 05:28:40;;;;;;;26.77;13.77;;;3.80;67.40;;;;;;5029303;28;20686;-83
2020/12/02 05:31:19;;;;;;;23.57;13.57;;;3.90;67.40;;;;;;5031123;28;20088;-83
2020/12/02 05:33:45;;;;;;;22.97;13.03;;;3.80;67.20;;;;;;5030273;28;20037;-83
2020/12/02 05:36:32;;;;;;;25.37;13.40;;;3.80;67.40;;;;;;5031472;28;20029;-83
2020/12/02 05:39:03;;;;;;;22.17;13.13;;;3.90;67.50;;;;;;5032090;28;20029;-83
2020/12/02 05:41:31;;;;;;;22.60;12.83;;;3.90;67.30;;;;;;5028926;28;20144;-83
2020/12/02 05:43:56;;;;;;;22.27;13.07;;;3.90;67.20;;;;;;5021696;28;20037;-83
2020/12/02 05:46:49;;;;;;;25.83;14.83;;;3.90;67.40;;;;;;5030780;28;20045;-83
2020/12/02 05:49:44;;;;;;;26.30;14.37;;;3.90;67.40;;;;;;5021349;28;20036;-83
2020/12/02 05:52:21;;;;;;;28.03;15.40;;;3.90;67.30;;;;;;5029892;28;20038;-83
2020/12/02 05:54:48;;;;;;;26.10;14.13;;;3.90;67.30;;;;;;5027774;28;20057;-83
2020/12/02 05:57:19;;;;;;;23.57;13.83;;;3.90;67.30;;;;;;5015165;28;20393;-83
2020/12/02 05:59:50;;;;;;;22.47;13.27;;;3.90;67.20;;;;;;5023959;28;20038;-83
2020/12/02 06:02:19;;;;;;;22.87;13.40;;;3.90;67.20;;;;;;5026202;28;20030;-83
2020/12/02 06:04:50;;;;;;;27.87;13.10;;;3.90;67.20;;;;;;5011977;28;20030;-83
2020/12/02 06:07:16;;;;;;;20.70;11.17;;;3.90;67.20;;;;;;5013510;28;20499;-83
2020/12/02 06:09:45;;;;;;;18.77;12.03;;;3.90;67.00;;;;;;5016264;28;20479;-83
2020/12/02 06:12:14;;;;;;;26.33;11.57;;;3.90;67.20;;;;;;5023488;28;20038;-83
2020/12/02 06:14:40;;;;;;;20.23;12.47;;;3.90;67.10;;;;;;5031660;28;20036;-83
2020/12/02 06:17:09;;;;;;;23.00;12.20;;;3.90;67.10;;;;;;5031229;28;20034;-83
2020/12/02 06:19:38;;;;;;;22.90;11.20;;;3.90;67.00;;;;;;5031752;28;20656;-83
2020/12/02 06:22:06;;;;;;;24.03;11.47;;;3.90;67.00;;;;;;5030128;28;20396;-83
2020/12/02 06:24:44;;;;;;;26.60;13.40;;;3.90;67.00;;;;;;5032470;28;20037;-83
2020/12/02 06:27:15;;;;;;;19.33;11.70;;;3.90;67.00;;;;;;5019902;28;20065;-83
2020/12/02 06:30:04;;;;;;;22.77;12.70;;;3.90;67.00;;;;;;5022082;28;20125;-83
2020/12/02 06:32:31;;;;;;;25.43;11.77;;;3.90;66.90;;;;;;5023486;28;20440;-83
2020/12/02 06:35:20;;;;;;;32.07;14.20;;;3.90;66.90;;;;;;5031886;28;20021;-82
2020/12/02 06:38:11;;;;;;;25.20;13.37;;;3.80;67.00;;;;;;5032603;28;20055;-82
2020/12/02 06:40:44;;;;;;;27.37;13.43;;;3.80;67.30;;;;;;5026632;28;20029;-82
2020/12/02 06:43:14;;;;;;;27.33;16.63;;;3.90;67.20;;;;;;5034331;28;20045;-82
2020/12/02 06:45:40;;;;;;;30.97;16.77;;;3.90;67.40;;;;;;5033805;28;20018;-82
2020/12/02 06:48:26;;;;;;;32.80;19.50;;;3.90;67.40;;;;;;5035846;28;20344;-83
2020/12/02 06:50:59;;;;;;;35.23;19.07;;;3.90;67.70;;;;;;5034258;28;20068;-83
2020/12/02 06:53:25;;;;;;;39.03;21.58;;;3.90;67.80;;;;;;5033484;28;20033;-83
2020/12/02 06:56:00;;;;;;;37.57;22.17;;;4.00;67.80;;;;;;5026665;28;20032;-83
2020/12/02 06:58:26;;;;;;;42.70;23.93;;;4.00;68.00;;;;;;5042019;28;20038;-83
2020/12/02 07:00:54;;;;;;;54.90;27.60;;;4.00;68.00;;;;;;5022961;28;20353;-83
2020/12/02 07:03:58;;;;;;;46.47;22.80;;;3.90;68.10;;;;;;5032357;28;20105;-83
2020/12/02 07:06:29;;;;;;;39.33;20.43;;;4.00;68.10;;;;;;5032596;28;20018;-82
2020/12/02 07:09:03;;;;;;;34.27;19.07;;;4.00;68.10;;;;;;5018452;28;20022;-83
2020/12/02 07:11:31;;;;;;;34.30;19.40;;;3.90;67.90;;;;;;5029999;28;20022;-83
2020/12/02 07:14:29;;;;;;;32.33;18.73;;;4.00;68.10;;;;;;5035463;28;20018;-83
2020/12/02 07:17:01;;;;;;;32.47;19.43;;;4.00;68.10;;;;;;5033463;28;20797;-83
2020/12/02 07:19:32;;;;;;;29.75;17.63;;;4.10;67.90;;;;;;5027919;28;20076;-82
2020/12/02 07:22:04;;;;;;;41.47;20.17;;;4.10;67.70;;;;;;5032283;28;20069;-83
2020/12/02 07:24:59;;;;;;;38.90;20.67;;;4.10;67.70;;;;;;5025571;28;20030;-83
2020/12/02 07:27:25;;;;;;;41.53;20.47;;;4.20;67.70;;;;;;5031373;28;20477;-84
2020/12/02 07:30:04;;;;;;;30.03;17.27;;;4.20;67.60;;;;;;5030225;28;20051;-84
2020/12/02 07:32:30;;;;;;;28.27;15.63;;;4.10;67.50;;;;;;5017699;28;20025;-84
2020/12/02 07:35:04;;;;;;;38.83;21.23;;;4.10;67.50;;;;;;5029482;28;20030;-84
2020/12/02 07:37:30;;;;;;;43.23;21.53;;;4.00;67.70;;;;;;5025493;28;20126;-83
2020/12/02 07:40:02;;;;;;;45.40;23.23;;;4.00;67.80;;;;;;5027473;28;20485;-83
2020/12/02 07:42:41;;;;;;;49.07;27.03;;;4.10;68.00;;;;;;5027212;28;20505;-83
2020/12/02 07:45:15;;;;;;;49.27;25.83;;;4.10;68.10;;;;;;5022887;28;20056;-83
2020/12/02 07:47:52;;;;;;;45.23;25.40;;;4.10;68.20;;;;;;5029206;28;20112;-82
2020/12/02 07:50:24;;;;;;;46.27;25.73;;;4.10;68.30;;;;;;5025541;28;20029;-82
2020/12/02 07:52:55;;;;;;;50.60;27.60;;;4.20;68.30;;;;;;5023953;28;20407;-83
2020/12/02 07:55:30;;;;;;;49.17;26.63;;;4.10;68.30;;;;;;5033552;28;20111;-82
2020/12/02 07:57:57;;;;;;;49.27;26.50;;;4.20;68.50;;;;;;5033187;28;20392;-82
2020/12/02 08:00:43;;;;;;;49.50;26.93;;;4.20;68.50;;;;;;5028051;28;20030;-82
2020/12/02 08:03:30;;;;;;;50.63;25.70;;;4.20;68.50;;;;;;5029907;28;20040;-83
2020/12/02 08:06:09;;;;;;;47.50;25.17;;;4.20;68.50;;;;;;5030714;28;20025;-82
2020/12/02 08:08:34;;;;;;;44.70;25.93;;;4.20;68.50;;;;;;5021407;28;20025;-83
2020/12/02 08:11:08;;;;;;;56.90;27.27;;;4.20;68.50;;;;;;5029047;28;20044;-82
2020/12/02 08:13:36;;;;;;;49.70;27.93;;;4.20;68.50;;;;;;5032831;28;20040;-83
2020/12/02 08:16:03;;;;;;;54.67;27.20;;;4.20;68.50;;;;;;5031599;28;20047;-83
2020/12/02 08:18:31;;;;;;;52.20;28.50;;;4.20;68.50;;;;;;5020794;28;20057;-83
2020/12/02 08:21:12;;;;;;;47.53;26.57;;;4.20;68.50;;;;;;5032871;28;20072;-83
2020/12/02 08:23:39;;;;;;;42.67;24.67;;;4.20;68.50;;;;;;5032196;28;20491;-82
2020/12/02 08:26:17;;;;;;;48.27;27.77;;;4.30;68.60;;;;;;5049083;28;20036;-82
2020/12/02 08:28:43;;;;;;;47.27;28.17;;;4.20;68.40;;;;;;5027994;28;20115;-82
2020/12/02 08:31:21;;;;;;;48.10;25.93;;;4.30;68.50;;;;;;5031701;28;20032;-83
2020/12/02 08:34:11;;;;;;;44.27;25.10;;;4.30;68.40;;;;;;5033063;28;20029;-83
2020/12/02 08:36:43;;;;;;;46.93;25.70;;;4.30;68.40;;;;;;5032824;28;20033;-83
2020/12/02 08:39:09;;;;;;;49.05;25.88;;;4.30;68.30;;;;;;5020517;28;20175;-83
2020/12/02 08:41:46;;;;;;;44.90;25.67;;;4.30;68.30;;;;;;5024820;28;20128;-83
2020/12/02 08:44:16;;;;;;;49.53;27.50;;;4.30;68.50;;;;;;5027144;28;20036;-83
2020/12/02 08:47:08;;;;;;;51.10;28.10;;;4.30;68.40;;;;;;5031040;28;20502;-83
2020/12/02 08:49:35;;;;;;;51.50;27.83;;;4.20;68.40;;;;;;5032478;28;20108;-83
2020/12/02 08:52:01;;;;;;;47.70;27.70;;;4.20;68.40;;;;;;5030541;28;20120;-83
2020/12/02 08:54:30;;;;;;;54.40;28.13;;;4.20;68.40;;;;;;5031119;28;20040;-82
2020/12/02 08:57:07;;;;;;;50.23;26.13;;;4.30;68.50;;;;;;5021105;28;20419;-82
2020/12/02 08:59:34;;;;;;;48.10;24.73;;;4.30;68.50;;;;;;5030920;28;20082;-82
2020/12/02 09:02:11;;;;;;;46.53;27.83;;;4.40;68.50;;;;;;5012971;28;20065;-82
2020/12/02 09:04:37;;;;;;;50.67;27.33;;;4.50;68.40;;;;;;5027186;28;20044;-82
2020/12/02 09:07:02;;;;;;;50.73;27.23;;;4.50;68.20;;;;;;5012345;28;20030;-82
2020/12/02 09:09:28;;;;;;;48.57;26.00;;;4.60;68.00;;;;;;5014010;28;20083;-82
2020/12/02 09:11:54;;;;;;;46.40;24.80;;;4.50;67.90;;;;;;5029218;28;20029;-82
2020/12/02 09:14:21;;;;;;;47.33;27.10;;;4.60;67.90;;;;;;5031383;28;20017;-82
2020/12/02 09:16:47;;;;;;;46.63;25.67;;;4.60;67.90;;;;;;5021609;28;20033;-82
2020/12/02 09:19:16;;;;;;;47.87;26.33;;;4.60;67.80;;;;;;5026595;28;20017;-83
2020/12/02 09:21:43;;;;;;;48.13;27.13;;;4.50;67.70;;;;;;5030642;28;20594;-83
2020/12/02 09:24:10;;;;;;;47.20;24.73;;;4.50;67.70;;;;;;5030006;28;20033;-82
2020/12/02 09:26:36;;;;;;;46.57;25.40;;;4.50;67.90;;;;;;5025935;28;20026;-82
2020/12/02 09:29:04;;;;;;;53.23;27.27;;;4.50;67.70;;;;;;5025217;28;20029;-82
2020/12/02 09:31:31;;;;;;;44.53;25.10;;;4.60;67.60;;;;;;5024704;28;20100;-83
2020/12/02 09:33:57;;;;;;;48.17;24.83;;;4.60;67.70;;;;;;5028377;28;20466;-82
2020/12/02 09:36:23;;;;;;;48.70;24.77;;;4.70;67.60;;;;;;5020165;28;20087;-83
2020/12/02 09:38:51;;;;;;;47.03;25.23;;;4.70;67.30;;;;;;5028247;28;20021;-83
2020/12/02 09:41:32;;;;;;;48.27;25.30;;;4.70;67.20;;;;;;5028297;28;20063;-83
2020/12/02 09:44:30;;;;;;;51.03;27.67;;;4.70;67.00;;;;;;5025737;28;20100;-82
2020/12/02 09:46:56;;;;;;;50.60;26.87;;;4.60;67.10;;;;;;5010795;28;20030;-82
2020/12/02 09:49:22;;;;;;;45.83;25.23;;;4.60;67.10;;;;;;5010255;28;20064;-83
2020/12/02 09:51:57;;;;;;;49.50;24.97;;;4.60;67.10;;;;;;5022102;28;20022;-83
2020/12/02 09:54:23;;;;;;;49.07;26.60;;;4.60;67.20;;;;;;5030486;28;20033;-82
2020/12/02 09:56:54;;;;;;;53.17;26.57;;;4.60;67.10;;;;;;5017573;28;20033;-82
2020/12/02 09:59:20;;;;;;;44.93;26.13;;;4.70;67.00;;;;;;5011645;28;20041;-82
2020/12/02 10:01:58;;;;;;;54.73;27.00;;;4.70;66.90;;;;;;5020993;28;20480;-83
2020/12/02 10:04:46;;;;;;;48.73;26.03;;;4.70;66.70;;;;;;5010466;28;20040;-82
2020/12/02 10:07:38;;;;;;;50.53;26.43;;;4.70;66.80;;;;;;5019124;28;20026;-82
2020/12/02 10:10:25;;;;;;;45.38;24.88;;;4.70;66.70;;;;;;5013356;28;20054;-82
2020/12/02 10:13:07;;;;;;;46.97;26.13;;;4.70;67.00;;;;;;5016560;28;20465;-82
2020/12/02 10:16:25;;;;;;;45.67;24.50;;;4.90;66.30;;;;;;5031623;28;20676;-82
2020/12/02 10:19:21;;;;;;;51.67;25.83;;;4.90;66.40;;;;;;5019799;28;20037;-82
2020/12/02 10:22:23;;;;;;;46.63;25.50;;;4.80;66.40;;;;;;5021655;28;20087;-83
2020/12/02 10:25:33;;;;;;;49.47;26.00;;;4.80;66.30;;;;;;5018440;28;20044;-84
2020/12/02 10:28:34;;;;;;;55.80;27.63;;;4.80;66.10;;;;;;5025717;28;20489;-83
2020/12/02 10:31:24;;;;;;;46.57;25.47;;;4.80;66.00;;;;;;5014827;28;20064;-82
2020/12/02 10:34:04;;;;;;;49.37;26.17;;;4.60;66.20;;;;;;5047032;28;20022;-82
2020/12/02 10:36:36;;;;;;;46.70;25.77;;;4.60;66.40;;;;;;5017597;28;20034;-83
2020/12/02 10:39:08;;;;;;;48.53;26.95;;;4.50;66.40;;;;;;5028216;28;20046;-82
2020/12/02 10:42:06;;;;;;;51.38;28.05;;;4.50;66.40;;;;;;5016971;28;20041;-82
2020/12/02 10:44:46;;;;;;;51.53;26.80;;;4.60;66.40;;;;;;5031411;28;20038;-82
2020/12/02 10:47:23;;;;;;;51.80;27.33;;;4.60;66.30;;;;;;5027779;28;20061;-82
2020/12/02 10:49:49;;;;;;;50.30;27.87;;;4.50;66.30;;;;;;5020880;28;20032;-82
2020/12/02 10:52:17;;;;;;;55.37;28.00;;;4.60;66.40;;;;;;5029446;28;20391;-82
2020/12/02 10:54:46;;;;;;;49.20;27.80;;;4.60;66.30;;;;;;5019330;28;20485;-82
2020/12/02 10:57:29;;;;;;;47.70;27.33;;;4.60;66.10;;;;;;5019944;28;20437;-82
2020/12/02 10:59:58;;;;;;;51.03;27.00;;;4.50;66.20;;;;;;5020349;28;20358;-82
2020/12/02 11:02:29;;;;;;;54.77;27.80;;;4.50;66.40;;;;;;5020413;28;20041;-83
2020/12/02 11:04:56;;;;;;;54.63;28.77;;;4.50;66.40;;;;;;5027293;28;20032;-82
2020/12/02 11:07:40;;;;;;;51.93;27.83;;;4.50;66.40;;;;;;5036978;28;20040;-83
2020/12/02 11:10:05;;;;;;;54.17;29.90;;;4.50;66.40;;;;;;5022122;28;20029;-83
2020/12/02 11:12:56;;;;;;;56.60;29.07;;;4.50;66.30;;;;;;5029067;28;20121;-83
2020/12/02 11:15:44;;;;;;;49.83;25.50;;;4.50;66.30;;;;;;5029242;28;20132;-83
2020/12/02 11:18:27;;;;;;;51.73;27.37;;;4.50;66.20;;;;;;5025188;28;20037;-83
2020/12/02 11:21:11;;;;;;;;;;;4.40;66.20;;;;;;5013641;28;20033;-82
2020/12/02 11:24:07;;;;;;;56.50;27.57;;;4.40;66.40;;;;;;5017222;28;19924;-82
2020/12/02 11:26:36;;;;;;;53.90;28.87;;;4.50;66.20;;;;;;5028368;28;20416;-83
2020/12/02 11:29:05;;;;;;;51.63;27.93;;;4.50;66.20;;;;;;5029696;28;20080;-83
2020/12/02 11:31:49;;;;;;;56.37;28.57;;;4.40;66.10;;;;;;5029659;28;20025;-83
2020/12/02 11:34:32;;;;;;;51.97;26.77;;;4.40;66.20;;;;;;5017519;28;20030;-82
2020/12/02 11:37:09;;;;;;;52.53;27.17;;;4.40;66.40;;;;;;5027308;28;20503;-83
2020/12/02 11:39:50;;;;;;;51.80;28.50;;;4.40;66.30;;;;;;5034275;28;20029;-83
2020/12/02 11:42:35;;;;;;;51.40;28.37;;;4.50;66.30;;;;;;5018268;28;20053;-83
2020/12/02 11:45:33;;;;;;;54.27;29.23;;;4.50;66.10;;;;;;5046123;28;20043;-83
2020/12/02 11:48:25;;;;;;;62.67;30.17;;;4.50;66.00;;;;;;5038745;28;20022;-83
2020/12/02 11:51:24;;;;;;;53.50;28.77;;;4.50;66.00;;;;;;5029926;28;20025;-83
2020/12/02 11:54:05;;;;;;;50.90;27.40;;;4.50;65.90;;;;;;5021434;28;20046;-83
2020/12/02 11:56:33;;;;;;;55.53;28.33;;;4.50;65.90;;;;;;5032592;28;20034;-83
2020/12/02 11:59:07;;;;;;;51.50;29.27;;;4.50;65.90;;;;;;5015573;28;20056;-83
2020/12/02 12:01:36;;;;;;;54.57;28.13;;;4.50;65.90;;;;;;5015364;28;20037;-83
2020/12/02 12:04:22;;;;;;;55.87;28.83;;;4.50;65.70;;;;;;5022716;28;20037;-83
2020/12/02 12:06:53;;;;;;;53.40;27.93;;;4.50;65.90;;;;;;5029746;28;20121;-83
2020/12/02 12:09:46;;;;;;;61.10;30.07;;;4.40;65.90;;;;;;5026789;28;20057;-83
2020/12/02 12:12:50;;;;;;;56.42;29.90;;;4.30;66.10;;;;;;5026103;28;20033;-83
2020/12/02 12:15:38;;;;;;;53.20;28.10;;;4.40;66.10;;;;;;5032669;28;20392;-83
2020/12/02 12:18:15;;;;;;;55.37;29.00;;;4.40;66.10;;;;;;5024221;28;20465;-83
2020/12/02 12:20:43;;;;;;;54.70;28.23;;;4.50;66.00;;;;;;5020986;28;20476;-83
2020/12/02 12:23:37;;;;;;;53.83;29.20;;;4.50;65.80;;;;;;5029921;28;20079;-83
2020/12/02 12:26:08;;;;;;;54.73;28.97;;;4.60;65.80;;;;;;5029329;28;20021;-83
2020/12/02 12:28:34;;;;;;;53.53;28.47;;;4.60;65.60;;;;;;5020110;28;20109;-83
2020/12/02 12:31:10;;;;;;;60.00;27.77;;;4.60;65.70;;;;;;5011734;28;20186;-83
2020/12/02 12:33:49;;;;;;;59.37;29.37;;;4.60;65.80;;;;;;5015326;28;20376;-83
2020/12/02 12:36:22;;;;;;;54.07;28.97;;;4.70;65.70;;;;;;5020442;28;20492;-83
2020/12/02 12:38:54;;;;;;;59.27;29.03;;;4.60;65.50;;;;;;5023622;28;20384;-83
2020/12/02 12:41:27;;;;;;;55.67;28.90;;;4.60;65.40;;;;;;5025040;28;20041;-83
2020/12/02 12:44:02;;;;;;;;;;;4.50;65.50;;;;;;5025819;28;20050;-83
2020/12/02 12:46:52;;;;;;;50.53;26.77;;;4.40;65.70;;;;;;5021093;28;20386;-83
2020/12/02 12:49:18;;;;;;;52.93;27.63;;;4.40;65.60;;;;;;5013657;28;20037;-83
2020/12/02 12:51:45;;;;;;;65.13;35.27;;;4.40;65.50;;;;;;5024004;28;20025;-83
2020/12/02 12:54:19;;;;;;;57.93;29.00;;;4.40;65.50;;;;;;5029197;28;20064;-83
2020/12/02 12:56:46;;;;;;;52.27;28.03;;;4.30;65.50;;;;;;5023901;28;20083;-83
2020/12/02 12:59:15;;;;;;;60.17;30.27;;;4.30;65.70;;;;;;5024264;28;20048;-83
2020/12/02 13:01:44;;;;;;;56.43;29.40;;;4.30;65.80;;;;;;5019252;28;20025;-83
2020/12/02 13:04:13;;;;;;;62.17;29.70;;;4.40;65.70;;;;;;5026232;28;20033;-83
2020/12/02 13:07:06;;;;;;;57.00;31.63;;;4.40;65.70;;;;;;5029180;28;20037;-83
2020/12/02 13:10:02;;;;;;;54.03;28.38;;;4.40;65.70;;;;;;5030854;28;20021;-83
2020/12/02 13:12:28;;;;;;;51.40;28.60;;;4.50;65.80;;;;;;5032230;28;20100;-83
2020/12/02 13:15:04;;;;;;;55.87;28.40;;;4.50;65.70;;;;;;5023421;28;20061;-83
2020/12/02 13:18:07;;;;;;;53.93;29.87;;;4.50;65.60;;;;;;5028652;28;20116;-82
2020/12/02 13:20:50;;;;;;;63.67;35.65;;;4.60;65.30;;;;;;5030356;28;20425;-83
2020/12/02 13:23:20;;;;;;;73.25;41.17;;;4.60;65.20;;;;;;5030425;28;20775;-82